Novo Aripuana, Brazil
Current Conditions -  °F | °C
As of 4:00 PM on Tuesday 21 Oct 2014 (Local Time) from SBMN Reporting Station
Thunderstorm Thunderstorm  
Wind Chill: 75°   Ceiling: 8000
Heat Index: 75°   Visibility: 6mi
Dew Point: 72°   Wind: 3mph
Humidity: 89%   Direction: 120°ESE
Pressure: NA   Gusts: NA
Location:  5.12°S, 60.38°W
Report Text: SBMN 212000Z 12003KT 9999 -TSRA FEW010 FEW025CB BKN080 24/22 Q1009
Loading
Personal Weather Stations






























Interactive Weather Map
Tropical Storm Tracking
New forecast layout! Learn more

10-Day Weather Forecast

Advertisements
Track Severe Weather on mobile